Time;durP1;ratioP1;P1;durP2;ratioP2;P2;SDS_P1;SDS_P2;PMS_P1;PMS_P2;Temp;Humidity;BMP_temperature;BMP_pressure;BME280_temperature;BME280_humidity;BME280_pressure;Samples;Min_cycle;Max_cycle;Signal;HPM_P1;HPM_P2
2021/04/05 00:00:21;;;;;;;2.25;1.83;;;;;;;17.83;46.27;99881.94;2067793;28;20788;-62
2021/04/05 00:01:21;;;;;;;2.03;1.80;;;;;;;17.83;46.12;99873.75;2068063;28;20042;-63
2021/04/05 00:02:22;;;;;;;2.13;1.70;;;;;;;17.82;46.19;99872.06;2070475;28;20041;-63
2021/04/05 00:03:22;;;;;;;2.20;2.00;;;;;;;17.82;46.15;99872.06;2070622;28;20030;-62
2021/04/05 00:04:26;;;;;;;4.90;1.80;;;;;;;17.82;46.11;99872.06;2068814;28;20030;-63
2021/04/05 00:05:29;;;;;;;2.10;1.77;;;;;;;17.81;46.17;99875.81;2070114;28;20030;-62
2021/04/05 00:06:30;;;;;;;1.77;1.40;;;;;;;17.82;46.17;99877.50;2070671;28;20037;-62
2021/04/05 00:07:30;;;;;;;2.03;1.60;;;;;;;17.82;46.15;99872.06;2069254;28;20108;-62
2021/04/05 00:08:31;;;;;;;2.50;2.10;;;;;;;17.82;45.97;99877.50;2070751;28;20120;-62
2021/04/05 00:09:31;;;;;;;2.00;1.43;;;;;;;17.82;46.14;99872.06;2070432;28;20439;-62
2021/04/05 00:10:45;;;;;;;1.73;1.50;;;;;;;17.82;46.08;99872.06;2063640;28;20365;-62
2021/04/05 00:11:45;;;;;;;2.15;1.75;;;;;;;17.81;46.19;99875.81;2062768;28;20030;-62
2021/04/05 00:12:46;;;;;;;3.53;2.10;;;;;;;17.83;46.09;99872.91;2065639;28;20025;-62
2021/04/05 00:13:47;;;;;;;1.90;1.70;;;;;;;17.81;46.02;99867.63;2064320;28;20116;-62
2021/04/05 00:14:47;;;;;;;2.40;1.70;;;;;;;17.80;46.38;99871.34;2067913;28;20538;-62
2021/04/05 00:15:48;;;;;;;2.20;1.67;;;;;;;17.80;46.28;99868.59;2068998;28;20042;-62
2021/04/05 00:16:48;;;;;;;1.85;1.67;;;;;;;17.81;46.37;99869.47;2070701;28;20121;-62
2021/04/05 00:17:49;;;;;;;1.97;1.77;;;;;;;17.82;46.09;99863.88;2070607;28;20033;-62
2021/04/05 00:18:50;;;;;;;2.33;1.92;;;;;;;17.83;46.13;99868.31;2065376;28;20018;-63
2021/04/05 00:19:50;;;;;;;2.43;1.80;;;;;;;17.83;46.11;99872.91;2068080;28;20056;-63
2021/04/05 00:20:57;;;;;;;1.87;1.67;;;;;;;17.81;46.07;99870.34;2060774;28;20184;-62
2021/04/05 00:21:57;;;;;;;1.77;1.52;;;;;;;17.82;46.31;99872.06;2070642;28;20105;-62
2021/04/05 00:22:58;;;;;;;2.10;1.60;;;;;;;17.82;46.20;99865.75;2070310;28;20038;-62
2021/04/05 00:23:58;;;;;;;2.03;1.77;;;;;;;17.82;46.19;99877.50;2063899;28;20033;-62
2021/04/05 00:24:58;;;;;;;2.53;2.03;;;;;;;17.82;46.12;99865.75;2070019;28;20060;-62
2021/04/05 00:25:59;;;;;;;1.70;1.40;;;;;;;17.81;46.15;99870.34;2069335;28;20034;-62
2021/04/05 00:27:00;;;;;;;2.28;1.80;;;;;;;17.81;46.08;99873.06;2070609;28;20515;-63
2021/04/05 00:28:01;;;;;;;1.70;1.60;;;;;;;17.81;46.24;99877.63;2069878;28;20036;-63
2021/04/05 00:29:02;;;;;;;2.35;1.70;;;;;;;17.81;46.15;99874.91;2070485;28;20076;-62
2021/04/05 00:30:09;;;;;;;1.90;1.70;;;;;;;17.81;46.35;99875.81;2070331;28;20112;-62
2021/04/05 00:31:09;;;;;;;2.33;1.77;;;;;;;17.80;46.15;99879.50;2066751;28;20056;-63
2021/04/05 00:32:11;;;;;;;2.37;1.67;;;;;;;17.79;46.21;99878.63;2069694;28;20041;-63
2021/04/05 00:33:11;;;;;;;2.45;1.75;;;;;;;17.79;46.28;99873.19;2070447;28;20097;-62
2021/04/05 00:34:12;;;;;;;2.40;1.70;;;;;;;17.81;46.36;99881.25;2065069;28;20119;-63
2021/04/05 00:35:15;;;;;;;2.07;1.83;;;;;;;17.80;46.28;99874.06;2069100;28;20464;-63
2021/04/05 00:36:16;;;;;;;2.08;1.88;;;;;;;17.79;46.22;99877.78;2069346;28;20026;-63
2021/04/05 00:37:16;;;;;;;14.63;1.93;;;;;;;17.81;46.32;99883.09;2070836;28;20030;-63
2021/04/05 00:38:17;;;;;;;2.57;1.47;;;;;;;17.79;46.45;99881.34;2068622;28;20094;-63
2021/04/05 00:39:17;;;;;;;2.00;1.65;;;;;;;17.80;46.27;99874.06;2070662;28;20065;-63
2021/04/05 00:40:49;;;;;;;2.33;1.90;;;;;;;17.79;46.24;99883.22;2070381;28;20034;-62
2021/04/05 00:41:49;;;;;;;2.33;1.85;;;;;;;17.78;46.20;99876.03;2058486;28;20038;-63
2021/04/05 00:42:50;;;;;;;1.70;1.50;;;;;;;17.78;46.33;99876.03;2063912;28;20089;-63
2021/04/05 00:43:51;;;;;;;3.40;2.07;;;;;;;17.79;46.17;99878.63;2069818;28;20591;-63
2021/04/05 00:44:52;;;;;;;2.65;1.67;;;;;;;17.80;46.23;99876.78;2068471;28;20204;-63
2021/04/05 00:45:53;;;;;;;2.77;1.60;;;;;;;17.80;46.35;99879.50;2069738;28;20097;-63
2021/04/05 00:46:54;;;;;;;2.53;1.75;;;;;;;17.79;46.09;99869.59;2069073;28;20022;-62
2021/04/05 00:47:54;;;;;;;2.43;2.03;;;;;;;17.79;46.25;99878.63;2070360;28;20038;-63
2021/04/05 00:48:55;;;;;;;1.70;1.60;;;;;;;17.81;45.99;99878.53;2070313;28;20546;-62
2021/04/05 00:49:55;;;;;;;1.73;1.60;;;;;;;17.80;46.22;99882.25;2069178;28;20049;-63
2021/04/05 00:51:04;;;;;;;2.20;2.00;;;;;;;17.77;46.21;99880.63;2070114;28;20033;-63
2021/04/05 00:52:05;;;;;;;2.88;2.25;;;;;;;17.78;46.24;99876.03;2069469;28;20100;-63
2021/04/05 00:53:11;;;;;;;1.88;1.70;;;;;;;17.80;46.16;99879.50;2069584;28;20054;-63
2021/04/05 00:54:13;;;;;;;1.90;1.50;;;;;;;17.79;46.09;99877.78;2070054;28;20038;-62
2021/04/05 00:55:14;;;;;;;2.25;1.92;;;;;;;17.80;46.31;99871.34;2070419;28;20042;-63
2021/04/05 00:56:17;;;;;;;2.23;1.87;;;;;;;17.80;46.24;99874.06;2068583;28;20524;-63
2021/04/05 00:57:18;;;;;;;2.28;1.73;;;;;;;17.79;46.20;99875.06;2070756;28;20104;-63
2021/04/05 00:58:18;;;;;;;2.27;1.87;;;;;;;17.79;46.18;99883.22;2069672;28;20137;-62
2021/04/05 00:59:19;;;;;;;2.33;1.90;;;;;;;17.79;46.22;99875.91;2070590;28;20038;-63
2021/04/05 01:00:22;;;;;;;1.70;1.60;;;;;;;17.78;46.34;99874.19;2070150;28;20052;-62
2021/04/05 01:01:27;;;;;;;2.83;1.90;;;;;;;17.78;46.14;99876.94;2066711;28;20044;-63
2021/04/05 01:02:27;;;;;;;1.85;1.67;;;;;;;17.79;46.21;99866.88;2070458;28;20079;-63
2021/04/05 01:03:33;;;;;;;3.83;2.17;;;;;;;17.78;46.16;99878.75;2068216;28;20183;-63
2021/04/05 01:04:33;;;;;;;2.35;2.08;;;;;;;17.79;46.24;99869.59;2070644;28;20569;-63
2021/04/05 01:05:34;;;;;;;2.10;1.60;;;;;;;17.78;46.39;99865.13;2069363;28;20116;-63
2021/04/05 01:06:36;;;;;;;2.20;1.67;;;;;;;17.80;46.30;99871.34;2067295;28;20843;-63
2021/04/05 01:07:37;;;;;;;1.70;1.58;;;;;;;17.77;46.32;99868.88;2070705;28;20053;-62
2021/04/05 01:08:37;;;;;;;2.07;1.87;;;;;;;17.77;46.26;99864.28;2071648;28;20041;-63
2021/04/05 01:09:38;;;;;;;1.83;1.73;;;;;;;17.79;46.17;99869.59;2072005;28;20041;-63
2021/04/05 01:10:38;;;;;;;2.87;2.17;;;;;;;17.79;46.17;99872.31;2069993;28;20136;-63
2021/04/05 01:11:39;;;;;;;2.13;1.80;;;;;;;17.78;46.15;99863.28;2066005;28;20088;-62
2021/04/05 01:12:41;;;;;;;2.13;1.60;;;;;;;17.79;46.21;99861.41;2069886;28;20029;-63
2021/04/05 01:13:42;;;;;;;2.47;2.10;;;;;;;17.78;46.23;99862.41;2071545;28;20025;-63
2021/04/05 01:14:43;;;;;;;2.05;1.80;;;;;;;17.78;46.26;99865.13;2063644;28;20034;-63
2021/04/05 01:15:44;;;;;;;2.30;2.10;;;;;;;17.78;46.15;99859.69;2063987;28;20121;-63
2021/04/05 01:16:45;;;;;;;2.33;1.97;;;;;;;17.78;46.30;99862.41;2071821;28;20033;-63
2021/04/05 01:17:50;;;;;;;1.70;1.58;;;;;;;17.77;46.16;99863.44;2070508;28;20037;-63
2021/04/05 01:18:51;;;;;;;2.10;1.90;;;;;;;17.79;46.22;99869.59;2070252;28;20198;-63
2021/04/05 01:19:51;;;;;;;1.90;1.63;;;;;;;17.78;46.27;99865.13;2070889;28;20041;-62
2021/04/05 01:20:52;;;;;;;2.77;2.03;;;;;;;17.77;46.01;99869.72;2071539;28;20541;-63
2021/04/05 01:21:53;;;;;;;1.93;1.60;;;;;;;17.79;46.21;99866.88;2070854;28;20029;-63
2021/04/05 01:22:53;;;;;;;2.17;1.87;;;;;;;17.77;46.26;99868.88;2071028;28;20457;-63
2021/04/05 01:23:54;;;;;;;2.53;1.70;;;;;;;17.77;46.35;99868.88;2071475;28;20105;-63
2021/04/05 01:24:55;;;;;;;2.50;2.30;;;;;;;17.78;46.06;99873.31;2070927;28;20064;-63
2021/04/05 01:25:55;;;;;;;2.40;1.93;;;;;;;17.77;46.30;99868.88;2070345;28;23454;-63
2021/04/05 01:26:55;;;;;;;2.13;1.63;;;;;;;17.77;46.18;99863.44;2071859;28;20057;-63
2021/04/05 01:27:56;;;;;;;2.03;1.77;;;;;;;17.77;46.16;99868.88;2070384;28;20033;-62
2021/04/05 01:28:57;;;;;;;2.47;1.95;;;;;;;17.77;46.38;99868.88;2071412;28;20029;-63
2021/04/05 01:29:57;;;;;;;2.20;1.90;;;;;;;17.76;46.30;99873.47;2071452;28;20404;-62
2021/04/05 01:31:01;;;;;;;2.20;1.70;;;;;;;17.77;46.41;99875.19;2064148;28;20049;-63
2021/04/05 01:32:01;;;;;;;1.58;1.45;;;;;;;17.76;46.39;99867.13;2071834;28;20052;-63
2021/04/05 01:33:11;;;;;;;2.47;1.70;;;;;;;17.74;46.44;99861.84;2070343;28;20248;-63
2021/04/05 01:34:11;;;;;;;2.45;1.88;;;;;;;17.75;46.40;99869.00;2071593;28;20037;-63
2021/04/05 01:35:12;;;;;;;1.97;1.83;;;;;;;17.76;46.42;99869.88;2070289;28;20033;-63
2021/04/05 01:36:16;;;;;;;2.00;1.70;;;;;;;17.76;46.23;99858.97;2070503;28;20548;-63
2021/04/05 01:37:16;;;;;;;2.33;1.63;;;;;;;17.76;46.20;99861.69;2071554;28;20115;-63
2021/04/05 01:38:19;;;;;;;2.73;2.30;;;;;;;17.76;46.32;99869.88;2070410;28;20061;-63
2021/04/05 01:39:20;;;;;;;2.72;1.80;;;;;;;17.77;46.33;99863.44;2070073;28;20177;-63
2021/04/05 01:40:20;;;;;;;2.23;1.87;;;;;;;17.77;46.10;99863.44;2070399;28;20037;-63
2021/04/05 01:41:26;;;;;;;3.23;1.83;;;;;;;17.74;46.32;99861.84;2071097;28;20056;-63
2021/04/05 01:42:27;;;;;;;1.73;1.60;;;;;;;17.75;46.24;99866.28;2066642;28;20041;-63
2021/04/05 01:43:27;;;;;;;1.90;1.70;;;;;;;17.74;46.23;99861.84;2071135;28;20160;-63
2021/04/05 01:44:31;;;;;;;2.10;1.67;;;;;;;17.74;46.26;99864.59;2071745;28;20416;-63
2021/04/05 01:45:32;;;;;;;2.55;2.28;;;;;;;17.74;46.36;99864.59;2069079;28;20022;-63
2021/04/05 01:46:32;;;;;;;2.90;2.20;;;;;;;17.76;46.26;99872.59;2071412;28;20045;-63
2021/04/05 01:47:33;;;;;;;2.13;1.60;;;;;;;17.76;46.22;99868.03;2070877;28;20056;-63
2021/04/05 01:48:34;;;;;;;2.60;1.87;;;;;;;17.76;46.37;99864.41;2071566;28;20499;-63
2021/04/05 01:49:35;;;;;;;2.23;1.80;;;;;;;17.76;46.40;99864.41;2070613;28;20369;-63
2021/04/05 01:50:36;;;;;;;2.30;1.88;;;;;;;17.74;46.20;99864.59;2068876;28;20040;-63
2021/04/05 01:51:37;;;;;;;2.08;1.80;;;;;;;17.75;46.52;99865.44;2067799;28;20034;-63
2021/04/05 01:52:41;;;;;;;2.80;1.80;;;;;;;17.74;46.28;99863.72;2071403;28;20030;-63
2021/04/05 01:53:43;;;;;;;1.70;1.60;;;;;;;17.76;46.27;99872.59;2071301;28;20018;-63
2021/04/05 01:54:44;;;;;;;2.47;2.05;;;;;;;17.75;46.14;99870.88;2071481;28;20067;-63
2021/04/05 01:55:45;;;;;;;1.77;1.67;;;;;;;17.75;46.24;99870.88;2069625;28;20084;-63
2021/04/05 01:56:46;;;;;;;1.75;1.60;;;;;;;17.75;46.36;99870.88;2069050;28;20620;-63
2021/04/05 01:57:49;;;;;;;2.30;1.60;;;;;;;17.74;46.19;99869.19;2063598;28;20096;-63
2021/04/05 01:58:52;;;;;;;2.15;1.95;;;;;;;17.74;46.21;99875.50;2066079;28;20026;-63
2021/04/05 01:59:53;;;;;;;2.38;2.05;;;;;;;17.75;46.15;99870.88;2071300;28;20030;-63
2021/04/05 02:00:54;;;;;;;3.00;1.87;;;;;;;17.75;46.20;99870.88;2071486;28;20079;-62
2021/04/05 02:01:55;;;;;;;1.85;1.50;;;;;;;17.74;46.30;99864.59;2065605;28;20026;-63
2021/04/05 02:02:57;;;;;;;2.20;1.60;;;;;;;17.75;46.20;99868.16;2071509;28;20033;-63
2021/04/05 02:03:58;;;;;;;1.92;1.63;;;;;;;17.75;46.23;99870.88;2068543;28;20480;-63
2021/04/05 02:04:59;;;;;;;2.20;1.65;;;;;;;17.75;46.24;99868.16;2069361;28;20036;-63
2021/04/05 02:06:00;;;;;;;2.20;1.63;;;;;;;17.76;46.15;99872.59;2070547;28;20045;-63
2021/04/05 02:07:00;;;;;;;2.40;1.90;;;;;;;17.74;46.21;99874.63;2070446;28;20054;-63
2021/04/05 02:08:01;;;;;;;2.03;1.80;;;;;;;17.74;46.32;99874.63;2070523;28;20068;-64
2021/04/05 02:09:07;;;;;;;3.50;1.90;;;;;;;17.75;46.16;99870.88;2070489;28;20670;-63
2021/04/05 02:10:17;;;;;;;1.98;1.60;;;;;;;17.73;46.43;99871.03;2067146;28;20073;-63
2021/04/05 02:11:20;;;;;;;2.50;1.50;;;;;;;17.73;46.35;99878.34;2071720;28;20504;-63
2021/04/05 02:12:21;;;;;;;2.22;1.50;;;;;;;17.73;46.28;99868.28;2071014;28;20032;-63
2021/04/05 02:13:23;;;;;;;1.70;1.60;;;;;;;17.73;46.28;99867.44;2069718;28;20036;-64
2021/04/05 02:14:23;;;;;;;;;;;;;;;17.70;46.29;99867.75;2072007;28;20026;-64
2021/04/05 02:15:25;;;;;;;1.88;1.63;;;;;;;17.70;46.30;99867.75;2070507;28;20375;-63
2021/04/05 02:16:27;;;;;;;2.30;1.98;;;;;;;17.71;46.31;99866.72;2071456;28;20042;-63
2021/04/05 02:17:28;;;;;;;1.98;1.60;;;;;;;17.71;46.28;99867.59;2069270;28;20388;-63
2021/04/05 02:18:28;;;;;;;2.27;2.07;;;;;;;17.72;46.33;99865.75;2070194;28;20128;-63
2021/04/05 02:19:28;;;;;;;1.93;1.73;;;;;;;17.72;46.51;99866.59;2071426;28;20611;-63
2021/04/05 02:20:30;;;;;;;2.43;2.07;;;;;;;17.72;46.06;99861.13;2070981;28;20109;-63
2021/04/05 02:21:31;;;;;;;2.65;2.10;;;;;;;17.73;46.24;99867.44;2071695;28;20038;-63
2021/04/05 02:22:31;;;;;;;3.07;1.87;;;;;;;17.72;46.38;99861.13;2069584;28;20110;-64
2021/04/05 02:23:32;;;;;;;3.33;1.83;;;;;;;17.73;46.25;99862.84;2069305;28;20080;-64
2021/04/05 02:24:35;;;;;;;2.23;1.70;;;;;;;17.74;46.04;99866.44;2071097;28;20137;-64
2021/04/05 02:25:36;;;;;;;1.63;1.50;;;;;;;17.72;46.34;99860.28;2071023;28;20056;-64
2021/04/05 02:26:37;;;;;;;2.05;1.83;;;;;;;17.74;46.22;99863.72;2071273;28;20108;-63
2021/04/05 02:27:38;;;;;;;1.67;1.57;;;;;;;17.73;46.29;99862.00;2068409;28;20045;-63
2021/04/05 02:28:41;;;;;;;2.67;2.00;;;;;;;17.72;46.22;99858.41;2070937;28;20265;-63
2021/04/05 02:29:42;;;;;;;2.10;1.83;;;;;;;17.72;46.23;99860.28;2071242;28;20078;-63
2021/04/05 02:30:42;;;;;;;2.50;1.93;;;;;;;17.72;46.23;99860.28;2068254;28;20057;-63
2021/04/05 02:31:43;;;;;;;2.40;2.03;;;;;;;17.73;46.35;99862.00;2068291;28;20026;-63
2021/04/05 02:32:44;;;;;;;2.13;1.75;;;;;;;17.72;46.39;99865.75;2069021;28;20523;-63
2021/04/05 02:33:48;;;;;;;2.93;1.90;;;;;;;17.72;46.28;99871.19;2069946;28;20022;-63
2021/04/05 02:34:48;;;;;;;2.45;1.80;;;;;;;17.72;46.37;99855.69;2068910;28;20029;-64
2021/04/05 02:35:49;;;;;;;1.93;1.77;;;;;;;17.72;46.17;99863.00;2067875;28;20017;-63
2021/04/05 02:36:50;;;;;;;2.13;1.70;;;;;;;17.72;46.29;99863.00;2070610;28;20127;-63
2021/04/05 02:37:52;;;;;;;2.13;1.87;;;;;;;17.72;46.36;99860.28;2069730;28;20088;-63
2021/04/05 02:38:57;;;;;;;2.45;1.70;;;;;;;17.72;46.06;99863.00;2070689;28;20032;-63
2021/04/05 02:40:00;;;;;;;1.73;1.55;;;;;;;17.71;46.33;99867.59;2069564;28;20045;-63
2021/04/05 02:41:00;;;;;;;4.53;1.80;;;;;;;17.71;46.29;99859.44;2069648;28;20029;-64
2021/04/05 02:42:01;;;;;;;2.30;2.07;;;;;;;17.71;46.58;99872.19;2071002;28;20036;-63
2021/04/05 02:43:03;;;;;;;2.37;1.90;;;;;;;17.71;46.35;99864.88;2069443;28;20061;-63
2021/04/05 02:44:04;;;;;;;2.00;1.60;;;;;;;17.72;46.23;99871.19;2070640;28;20105;-64
2021/04/05 02:45:07;;;;;;;2.22;1.90;;;;;;;17.71;46.28;99867.59;2070136;28;20096;-63
2021/04/05 02:46:13;;;;;;;2.08;1.70;;;;;;;17.70;46.50;99867.75;2069394;28;20022;-63
2021/04/05 02:47:14;;;;;;;2.42;1.70;;;;;;;17.71;46.31;99869.44;2071135;28;20029;-63
2021/04/05 02:48:15;;;;;;;1.60;1.50;;;;;;;17.72;46.38;99873.91;2069169;28;20021;-63
2021/04/05 02:49:17;;;;;;;2.05;1.70;;;;;;;17.71;46.51;99874.91;2070986;28;20425;-63
2021/04/05 02:50:20;;;;;;;2.08;1.70;;;;;;;17.71;46.23;99874.91;2069864;28;20029;-63
2021/04/05 02:51:21;;;;;;;2.50;1.95;;;;;;;17.71;46.23;99877.63;2068746;28;20480;-63
2021/04/05 02:52:22;;;;;;;2.63;1.80;;;;;;;17.72;46.25;99876.63;2070446;28;20030;-63
2021/04/05 02:53:23;;;;;;;3.23;2.00;;;;;;;17.72;46.37;99887.53;2070753;28;20501;-63
2021/04/05 02:54:25;;;;;;;2.15;1.65;;;;;;;17.71;46.24;99872.19;2070969;28;20018;-63
2021/04/05 02:55:25;;;;;;;1.92;1.67;;;;;;;17.70;46.27;99870.47;2070253;28;20038;-63
2021/04/05 02:56:27;;;;;;;2.00;1.80;;;;;;;17.71;46.27;99883.09;2062911;28;20600;-63
2021/04/05 02:57:27;;;;;;;2.33;1.70;;;;;;;17.71;46.23;99886.69;2070246;28;20031;-63
2021/04/05 02:58:31;;;;;;;2.17;1.80;;;;;;;17.71;46.37;99880.34;2070300;28;20120;-63
2021/04/05 02:59:31;;;;;;;2.60;1.90;;;;;;;17.71;46.20;99877.63;2070894;28;20626;-63
2021/04/05 03:00:35;;;;;;;3.13;2.17;;;;;;;17.70;46.27;99874.06;2070570;28;20555;-63
2021/04/05 03:01:39;;;;;;;2.13;1.65;;;;;;;17.71;46.22;99878.50;2062333;28;20069;-63
2021/04/05 03:02:41;;;;;;;2.55;1.90;;;;;;;17.71;46.32;99874.91;2070885;28;20101;-63
2021/04/05 03:03:44;;;;;;;2.03;1.80;;;;;;;17.70;46.46;99879.50;2066627;28;20018;-63
2021/04/05 03:04:45;;;;;;;1.70;1.60;;;;;;;17.72;46.30;99872.03;2070219;28;20030;-63
2021/04/05 03:05:46;;;;;;;1.98;1.77;;;;;;;17.71;46.27;99872.19;2069618;28;20030;-63
2021/04/05 03:06:49;;;;;;;2.20;1.90;;;;;;;17.69;46.31;99866.88;2067175;28;20030;-63
2021/04/05 03:07:50;;;;;;;3.97;1.88;;;;;;;17.71;46.29;99864.00;2068765;28;20029;-64
2021/04/05 03:08:51;;;;;;;2.00;1.77;;;;;;;17.70;46.35;99867.75;2068072;28;20127;-63
2021/04/05 03:09:53;;;;;;;2.50;2.03;;;;;;;17.68;46.29;99865.16;2070777;28;20033;-63
2021/04/05 03:10:56;;;;;;;2.47;1.80;;;;;;;17.69;46.36;99866.03;2070662;28;20050;-63
2021/04/05 03:11:57;;;;;;;2.47;1.83;;;;;;;17.70;46.12;99862.28;2063693;28;20065;-63
2021/04/05 03:13:17;;;;;;;2.25;1.67;;;;;;;17.68;46.28;99856.97;2067573;28;20022;-63
2021/04/05 03:14:18;;;;;;;2.22;1.80;;;;;;;17.68;46.41;99865.16;2069881;28;20109;-63
2021/04/05 03:15:20;;;;;;;2.15;1.88;;;;;;;17.68;46.28;99864.28;2069286;28;20034;-63
2021/04/05 03:16:23;;;;;;;2.03;1.50;;;;;;;17.70;46.45;99862.28;2066840;28;20029;-63
2021/04/05 03:17:24;;;;;;;2.80;2.13;;;;;;;17.69;46.07;99855.13;2064002;28;20058;-63
2021/04/05 03:18:27;;;;;;;2.42;1.92;;;;;;;17.69;46.20;99849.69;2066312;28;20028;-63
2021/04/05 03:19:28;;;;;;;2.42;1.60;;;;;;;17.68;46.28;99853.41;2065379;28;20025;-64
2021/04/05 03:20:32;;;;;;;2.33;1.60;;;;;;;17.68;46.09;99850.66;2069328;28;20053;-63
2021/04/05 03:21:33;;;;;;;2.58;1.90;;;;;;;17.67;46.54;99852.53;2068633;28;20272;-63
2021/04/05 03:22:35;;;;;;;2.22;1.65;;;;;;;17.67;46.29;99852.53;2070549;28;20030;-63
2021/04/05 03:23:36;;;;;;;2.63;1.60;;;;;;;17.68;46.18;99850.66;2069959;28;20025;-63
2021/04/05 03:24:37;;;;;;;1.67;1.50;;;;;;;17.69;46.05;99856.00;2069850;28;20034;-63
2021/04/05 03:25:38;;;;;;;2.40;1.50;;;;;;;17.69;46.22;99855.13;2063904;28;20089;-63
2021/04/05 03:26:39;;;;;;;1.77;1.63;;;;;;;17.68;46.29;99853.41;2068789;28;20104;-63
2021/04/05 03:27:39;;;;;;;2.27;2.07;;;;;;;17.68;46.37;99858.84;2070503;28;20420;-63
2021/04/05 03:28:40;;;;;;;1.97;1.77;;;;;;;17.68;46.30;99858.84;2065606;28;20037;-63
2021/04/05 03:29:43;;;;;;;1.97;1.77;;;;;;;17.67;46.33;99863.44;2066824;28;20018;-63
2021/04/05 03:31:12;;;;;;;2.25;1.63;;;;;;;17.66;46.26;99849.94;2068348;28;20061;-63
2021/04/05 03:32:15;;;;;;;2.13;1.90;;;;;;;17.65;46.29;99860.00;2066586;28;20033;-63
2021/04/05 03:33:28;;;;;;;2.30;1.63;;;;;;;17.66;46.13;99856.25;2070672;28;20025;-63
2021/04/05 03:34:31;;;;;;;1.88;1.52;;;;;;;17.65;46.26;99860.00;2070320;28;20117;-63
2021/04/05 03:35:36;;;;;;;2.50;2.03;;;;;;;17.65;46.14;99854.56;2068922;28;20102;-63
2021/04/05 03:36:54;;;;;;;2.00;1.73;;;;;;;17.63;46.18;99856.56;2070914;28;20099;-63
2021/04/05 03:37:56;;;;;;;2.38;1.77;;;;;;;17.65;46.39;99857.28;2067454;28;20057;-63
2021/04/05 03:38:58;;;;;;;2.08;1.50;;;;;;;17.66;46.27;99860.84;2068765;28;20053;-63
2021/04/05 03:39:59;;;;;;;3.20;2.05;;;;;;;17.66;46.38;99858.97;2070673;28;20061;-63
2021/04/05 03:41:02;;;;;;;2.23;1.80;;;;;;;17.67;46.33;99857.13;2069938;28;20034;-63
2021/04/05 03:42:16;;;;;;;1.70;1.60;;;;;;;17.63;46.32;99845.66;2068560;28;20042;-63
2021/04/05 03:43:28;;;;;;;2.45;1.85;;;;;;;17.64;46.35;99851.97;2069864;28;20045;-63
2021/04/05 03:45:04;;;;;;;2.40;1.60;;;;;;;17.63;46.42;99852.97;2065968;28;20116;-63
2021/04/05 03:46:22;;;;;;;2.75;1.90;;;;;;;17.62;46.37;99848.53;2070482;28;20026;-64
2021/04/05 03:47:40;;;;;;;2.70;1.70;;;;;;;17.61;46.40;99854.97;2069425;28;20034;-63
2021/04/05 03:48:52;;;;;;;3.40;2.08;;;;;;;17.62;46.35;99854.00;2064717;28;20112;-63
2021/04/05 03:49:56;;;;;;;;;;;;;;;17.57;46.48;99855.28;2071262;28;20400;-63
2021/04/05 03:51:13;;;;;;;2.17;1.58;;;;;;;17.58;46.50;99862.44;2067830;28;20793;-64
2021/04/05 03:52:26;;;;;;;2.78;2.25;;;;;;;17.60;46.56;99858.72;2070350;28;20026;-63
2021/04/05 03:53:39;;;;;;;2.70;2.03;;;;;;;17.61;46.43;99869.47;2069674;28;20026;-63
2021/04/05 03:54:44;;;;;;;;;;;;;;;17.55;46.56;99870.91;2070456;28;20044;-63
2021/04/05 03:55:49;;;;;;;2.03;1.50;;;;;;;17.57;46.41;99873.50;2070672;28;19913;-63
2021/04/05 03:56:53;;;;;;;2.08;1.50;;;;;;;17.58;46.55;99873.34;2070099;28;20030;-63
2021/04/05 03:57:57;;;;;;;2.03;1.83;;;;;;;17.59;46.47;99876.97;2064364;28;20475;-64
2021/04/05 03:59:04;;;;;;;1.60;1.33;;;;;;;17.60;46.32;99877.81;2069695;28;20037;-63
2021/04/05 04:00:08;;;;;;;2.70;1.70;;;;;;;17.61;46.35;99879.50;2070589;28;20128;-63
2021/04/05 04:01:11;;;;;;;2.00;1.80;;;;;;;17.62;46.64;99875.81;2063733;28;20041;-64
2021/04/05 04:02:16;;;;;;;2.20;1.83;;;;;;;17.62;46.45;99878.53;2067093;28;20826;-63
2021/04/05 04:03:27;;;;;;;1.73;1.58;;;;;;;17.63;46.24;99877.50;2069727;28;20030;-63
2021/04/05 04:04:39;;;;;;;2.13;1.80;;;;;;;17.63;46.49;99882.97;2063913;28;20049;-63
2021/04/05 04:05:42;;;;;;;2.38;1.60;;;;;;;17.63;46.47;99888.41;2070845;28;20034;-64
2021/04/05 04:08:22;;;;;;;1.90;1.70;;;;;;;17.62;46.53;99893.00;2069725;28;20037;-62
2021/04/05 04:09:24;;;;;;;1.98;1.77;;;;;;;17.63;46.43;99888.41;2069855;28;20033;-62
2021/04/05 04:10:28;;;;;;;2.00;1.80;;;;;;;17.62;46.45;99890.28;2069614;28;20030;-62
2021/04/05 04:11:31;;;;;;;2.33;2.08;;;;;;;17.63;46.39;99893.88;2068857;28;20069;-62
2021/04/05 04:12:33;;;;;;;2.10;1.80;;;;;;;17.63;46.35;99888.41;2069889;28;20715;-62
2021/04/05 04:13:41;;;;;;;2.10;1.80;;;;;;;17.63;46.47;99888.41;2069472;28;20029;-62
2021/04/05 04:14:44;;;;;;;1.98;1.70;;;;;;;17.63;46.33;99883.81;2069060;28;20034;-62
2021/04/05 04:15:49;;;;;;;1.98;1.75;;;;;;;17.63;46.45;99888.41;2070157;28;20066;-62
2021/04/05 04:16:51;;;;;;;1.92;1.67;;;;;;;17.63;46.41;99889.25;2067423;28;20029;-62
2021/04/05 04:17:52;;;;;;;2.15;1.90;;;;;;;17.64;46.25;99887.41;2068910;28;20025;-62
2021/04/05 04:18:56;;;;;;;2.63;1.83;;;;;;;17.64;46.27;99890.13;2068102;28;20040;-62
2021/04/05 04:19:59;;;;;;;2.20;1.58;;;;;;;17.63;46.34;99892.00;2070023;28;20049;-62
2021/04/05 04:21:01;;;;;;;2.85;1.88;;;;;;;17.64;46.38;99890.13;2070538;28;20037;-62
2021/04/05 04:22:02;;;;;;;2.10;1.90;;;;;;;17.63;46.27;99888.41;2069288;28;20112;-63
2021/04/05 04:23:03;;;;;;;2.78;1.95;;;;;;;17.63;46.49;99891.13;2070787;28;20065;-63
2021/04/05 04:24:04;;;;;;;3.20;2.13;;;;;;;17.63;46.33;99889.25;2068570;28;20711;-62
2021/04/05 04:25:06;;;;;;;3.05;1.85;;;;;;;17.63;46.32;99888.41;2069976;28;22348;-63
2021/04/05 04:26:07;;;;;;;2.50;2.05;;;;;;;17.62;46.36;99893.00;2070670;28;20092;-62
2021/04/05 04:27:07;;;;;;;2.73;2.03;;;;;;;17.64;46.37;99895.56;2069760;28;20030;-62
2021/04/05 04:28:14;;;;;;;2.07;1.73;;;;;;;17.63;46.29;99900.16;2070514;28;20038;-62
2021/04/05 04:29:19;;;;;;;2.17;1.90;;;;;;;17.63;46.38;99899.31;2069536;28;20363;-62
2021/04/05 04:30:33;;;;;;;1.85;1.65;;;;;;;17.63;46.37;99899.31;2068223;28;20506;-62
2021/04/05 04:31:34;;;;;;;2.38;1.90;;;;;;;17.62;46.44;99903.06;2069871;28;20519;-63
2021/04/05 04:32:35;;;;;;;1.97;1.53;;;;;;;17.62;46.43;99909.38;2066818;28;20552;-62
2021/04/05 04:33:36;;;;;;;2.33;1.83;;;;;;;17.63;46.51;99904.75;2070732;28;20030;-62
2021/04/05 04:34:36;;;;;;;3.83;2.20;;;;;;;17.62;46.16;99913.97;2067332;28;20492;-62
2021/04/05 04:35:39;;;;;;;2.30;2.00;;;;;;;17.63;46.41;99915.66;2070313;28;20040;-63
2021/04/05 04:36:40;;;;;;;2.03;1.70;;;;;;;17.63;46.33;99915.66;2070662;28;20026;-62
2021/04/05 04:37:40;;;;;;;1.73;1.63;;;;;;;17.63;46.33;99915.66;2069634;28;20036;-62
2021/04/05 04:38:41;;;;;;;2.10;1.90;;;;;;;17.62;46.29;99920.25;2070594;28;20047;-62
2021/04/05 04:39:42;;;;;;;2.57;1.73;;;;;;;17.63;46.34;99916.53;2068409;28;20090;-62
2021/04/05 04:40:45;;;;;;;2.00;1.77;;;;;;;17.63;46.34;99921.13;2069766;28;20134;-62
2021/04/05 04:41:48;;;;;;;2.20;2.00;;;;;;;17.62;46.23;99913.97;2070466;28;20048;-62
2021/04/05 04:42:50;;;;;;;1.88;1.55;;;;;;;17.62;46.25;99909.38;2069738;28;20042;-62
2021/04/05 04:44:02;;;;;;;4.07;2.03;;;;;;;17.62;46.38;99913.97;2071888;28;20212;-62
2021/04/05 04:45:03;;;;;;;;;;;;;;;17.56;46.35;99910.81;2071988;28;20041;-62
2021/04/05 04:46:03;;;;;;;2.13;1.92;;;;;;;17.58;46.31;99914.22;2071248;28;19999;-62
2021/04/05 04:47:04;;;;;;;1.90;1.63;;;;;;;17.58;46.40;99914.22;2072036;28;20062;-62
2021/04/05 04:48:05;;;;;;;1.75;1.58;;;;;;;17.60;46.39;99910.50;2068135;28;20399;-63
2021/04/05 04:49:11;;;;;;;3.03;2.17;;;;;;;17.60;46.32;99907.78;2071387;28;20045;-62
2021/04/05 04:50:16;;;;;;;2.33;1.98;;;;;;;17.60;46.39;99910.50;2070716;28;20041;-62
2021/04/05 04:51:16;;;;;;;2.65;1.70;;;;;;;17.60;46.52;99913.25;2069862;28;20026;-62
2021/04/05 04:52:20;;;;;;;2.07;1.83;;;;;;;17.61;46.42;99914.94;2072138;28;20061;-62
2021/04/05 04:53:20;;;;;;;2.05;1.50;;;;;;;17.60;46.37;99910.50;2070927;28;20037;-62
2021/04/05 04:54:21;;;;;;;1.93;1.70;;;;;;;17.60;46.44;99911.38;2072062;28;20040;-62
2021/04/05 04:55:24;;;;;;;2.90;1.87;;;;;;;17.60;46.38;99910.50;2071686;28;20029;-62
2021/04/05 04:56:25;;;;;;;2.63;2.03;;;;;;;17.60;46.32;99910.50;2069232;28;20026;-62
2021/04/05 04:57:26;;;;;;;;;;;;;;;17.55;46.50;99914.53;2071947;28;20115;-62